Time;durP1;ratioP1;P1;durP2;ratioP2;P2;SDS_P1;SDS_P2;PMS_P1;PMS_P2;Temp;Humidity;BMP_temperature;BMP_pressure;BME280_temperature;BME280_humidity;BME280_pressure;Samples;Min_cycle;Max_cycle;Signal;HPM_P1;HPM_P2
2022/04/07 00:00:40;;;;;;;4.60;2.93;;;10.90;99.90;;;;;;5078391;28;20330;-77
2022/04/07 00:03:06;;;;;;;5.60;2.50;;;10.80;99.90;;;;;;5088347;28;20221;-78
2022/04/07 00:05:31;;;;;;;6.67;3.20;;;10.80;99.90;;;;;;5072063;28;20260;-77
2022/04/07 00:07:56;;;;;;;4.30;1.97;;;10.80;99.90;;;;;;5066666;28;20218;-74
2022/04/07 00:10:22;;;;;;;6.17;1.90;;;10.80;99.90;;;;;;5096488;28;20227;-76
2022/04/07 00:12:48;;;;;;;3.70;2.77;;;10.80;99.90;;;;;;5090281;28;20205;-77
2022/04/07 00:15:14;;;;;;;6.60;2.70;;;10.70;99.90;;;;;;5068008;28;20551;-77
2022/04/07 00:17:40;;;;;;;8.73;2.87;;;10.70;99.90;;;;;;5078965;28;20206;-75
2022/04/07 00:20:06;;;;;;;7.17;2.40;;;10.80;99.90;;;;;;5106743;28;20624;-77
2022/04/07 00:22:31;;;;;;;6.90;2.93;;;10.70;99.90;;;;;;5115789;28;20206;-79
2022/04/07 00:24:57;;;;;;;4.60;2.80;;;10.80;99.90;;;;;;5094544;28;20223;-78
2022/04/07 00:27:22;;;;;;;3.03;1.83;;;10.80;99.90;;;;;;5112851;28;20264;-77
2022/04/07 00:29:48;;;;;;;4.50;2.37;;;10.80;99.90;;;;;;5096091;28;20209;-76
2022/04/07 00:32:13;;;;;;;4.93;2.37;;;10.80;99.90;;;;;;5070482;28;20718;-78
2022/04/07 00:34:39;;;;;;;9.47;2.93;;;10.70;99.90;;;;;;5075904;28;20203;-77
2022/04/07 00:37:05;;;;;;;4.67;2.20;;;10.70;99.90;;;;;;5075939;28;20210;-78
2022/04/07 00:39:31;;;;;;;5.50;2.73;;;10.70;99.90;;;;;;5095424;28;20178;-78
2022/04/07 00:41:56;;;;;;;4.73;2.30;;;10.60;99.90;;;;;;5074380;28;20211;-77
2022/04/07 00:44:22;;;;;;;5.50;3.00;;;10.60;99.90;;;;;;5085513;28;20203;-77
2022/04/07 00:46:48;;;;;;;5.83;3.07;;;10.60;99.90;;;;;;5086478;28;20254;-77
2022/04/07 00:49:14;;;;;;;6.67;2.80;;;10.50;99.90;;;;;;5097329;28;20258;-77
2022/04/07 00:51:42;;;;;;;5.50;2.87;;;10.60;99.90;;;;;;5115914;28;20280;-78
2022/04/07 00:54:08;;;;;;;4.37;2.33;;;10.50;99.90;;;;;;5108230;28;20209;-78
2022/04/07 00:56:36;;;;;;;4.83;2.47;;;10.50;99.90;;;;;;5077895;28;20248;-78
2022/04/07 00:59:04;;;;;;;6.63;3.17;;;10.50;99.90;;;;;;5105882;28;20205;-77
2022/04/07 01:01:30;;;;;;;6.30;2.83;;;10.40;99.90;;;;;;5095540;28;20274;-77
2022/04/07 01:03:57;;;;;;;4.97;2.57;;;10.40;99.90;;;;;;5081973;28;20678;-77
2022/04/07 01:06:23;;;;;;;5.03;2.70;;;10.40;99.90;;;;;;5102093;28;20198;-76
2022/04/07 01:08:49;;;;;;;3.93;2.60;;;10.30;99.90;;;;;;5094054;28;20670;-77
2022/04/07 01:11:15;;;;;;;3.93;2.10;;;10.30;99.90;;;;;;5096845;28;20213;-77
2022/04/07 01:13:49;;;;;;;4.40;2.70;;;10.30;99.90;;;;;;5095136;28;20220;-77
2022/04/07 01:16:16;;;;;;;3.47;2.20;;;10.30;99.90;;;;;;5090708;28;20705;-76
2022/04/07 01:18:44;;;;;;;6.23;2.90;;;10.30;99.90;;;;;;5103634;28;20174;-76
2022/04/07 01:21:11;;;;;;;5.37;2.40;;;10.30;99.90;;;;;;5104697;28;20284;-76
2022/04/07 01:23:38;;;;;;;4.17;2.70;;;10.40;99.90;;;;;;5112778;28;20206;-77
2022/04/07 01:26:08;;;;;;;4.27;2.43;;;10.40;99.90;;;;;;5112067;28;20205;-77
2022/04/07 01:28:35;;;;;;;5.17;3.07;;;10.40;99.90;;;;;;5111823;28;20209;-76
2022/04/07 01:31:01;;;;;;;3.03;2.27;;;10.40;99.90;;;;;;5094350;28;20177;-77
2022/04/07 01:33:27;;;;;;;4.83;2.60;;;10.50;99.90;;;;;;5112730;28;20220;-77
2022/04/07 01:35:53;;;;;;;6.30;2.97;;;10.50;99.90;;;;;;5108136;28;20202;-77
2022/04/07 01:38:19;;;;;;;4.93;2.63;;;10.50;99.90;;;;;;5107834;28;20315;-76
2022/04/07 01:40:47;;;;;;;9.13;3.20;;;10.40;99.90;;;;;;5091535;28;20206;-77
2022/04/07 01:43:15;;;;;;;5.13;2.90;;;10.40;99.90;;;;;;5091927;28;20300;-77
2022/04/07 01:45:41;;;;;;;6.40;3.47;;;10.30;99.90;;;;;;5102437;28;20171;-77
2022/04/07 01:48:08;;;;;;;5.93;2.77;;;10.20;99.90;;;;;;5079355;28;20205;-77
2022/04/07 01:50:36;;;;;;;4.77;2.33;;;10.20;99.90;;;;;;5075176;28;20210;-77
2022/04/07 01:53:01;;;;;;;6.03;2.80;;;10.20;99.90;;;;;;5074309;28;20721;-77
2022/04/07 01:55:27;;;;;;;8.60;3.20;;;10.10;99.90;;;;;;5091904;28;20234;-77
2022/04/07 01:57:54;;;;;;;4.70;2.80;;;10.20;99.90;;;;;;5083332;28;20639;-76
2022/04/07 02:00:19;;;;;;;5.27;3.47;;;10.20;99.90;;;;;;5103933;28;20216;-77
2022/04/07 02:02:45;;;;;;;6.90;3.27;;;10.20;99.90;;;;;;5082274;28;20206;-76
2022/04/07 02:05:11;;;;;;;8.60;3.27;;;10.20;99.90;;;;;;5081371;28;20201;-77
2022/04/07 02:07:40;;;;;;;5.77;3.60;;;10.20;99.90;;;;;;5087599;28;20215;-77
2022/04/07 02:10:07;;;;;;;5.57;3.67;;;10.20;99.90;;;;;;5113827;28;20284;-77
2022/04/07 02:12:36;;;;;;;5.80;3.30;;;10.10;99.90;;;;;;5095862;28;20276;-77
2022/04/07 02:15:01;;;;;;;4.77;3.63;;;10.20;99.90;;;;;;5112611;28;20674;-77
2022/04/07 02:17:27;;;;;;;7.67;3.40;;;10.20;99.90;;;;;;5099885;28;20209;-76
2022/04/07 02:19:59;;;;;;;5.43;3.33;;;10.20;99.90;;;;;;5091068;28;20332;-76
2022/04/07 02:22:28;;;;;;;6.40;3.73;;;10.20;99.90;;;;;;5073377;28;20214;-76
2022/04/07 02:24:58;;;;;;;6.80;3.80;;;10.10;99.90;;;;;;5069846;28;20276;-77
2022/04/07 02:27:23;;;;;;;9.97;3.73;;;10.10;99.90;;;;;;5085824;28;20189;-76
2022/04/07 02:29:49;;;;;;;9.37;4.17;;;10.00;99.90;;;;;;5090603;28;20226;-76
2022/04/07 02:32:14;;;;;;;6.70;4.13;;;10.00;99.90;;;;;;5081329;28;20659;-77
2022/04/07 02:34:41;;;;;;;5.90;4.23;;;10.00;99.90;;;;;;5102311;28;20304;-77
2022/04/07 02:37:07;;;;;;;5.33;3.93;;;10.00;99.90;;;;;;5088288;28;20206;-77
2022/04/07 02:39:34;;;;;;;6.27;3.87;;;9.90;99.90;;;;;;5092508;28;20190;-77
2022/04/07 02:41:59;;;;;;;8.13;4.60;;;9.90;99.90;;;;;;5078871;28;20209;-76
2022/04/07 02:44:25;;;;;;;9.67;5.13;;;9.90;99.90;;;;;;5093909;28;20202;-77
2022/04/07 02:46:51;;;;;;;5.87;4.03;;;9.90;99.90;;;;;;5081443;28;20214;-76
2022/04/07 02:49:17;;;;;;;7.23;4.30;;;9.90;99.90;;;;;;5088448;28;20228;-76
2022/04/07 02:51:45;;;;;;;9.53;4.70;;;9.80;99.90;;;;;;5081640;28;20301;-76
2022/04/07 02:54:11;;;;;;;5.10;4.10;;;9.80;99.90;;;;;;5099148;28;20166;-76
2022/04/07 02:56:37;;;;;;;7.43;4.60;;;9.80;99.90;;;;;;5092462;28;20233;-76
2022/04/07 02:59:02;;;;;;;9.97;4.73;;;9.80;99.90;;;;;;5066819;22;20232;-74
2022/04/07 03:01:28;;;;;;;5.17;4.37;;;9.80;99.90;;;;;;5032551;28;20289;-75
2022/04/07 03:03:55;;;;;;;7.47;4.43;;;9.80;99.90;;;;;;5068656;28;20175;-75
2022/04/07 03:06:24;;;;;;;5.87;4.50;;;9.70;99.90;;;;;;5039626;28;20545;-77
2022/04/07 03:08:51;;;;;;;8.77;4.77;;;9.70;99.90;;;;;;5049637;28;20207;-75
2022/04/07 03:11:17;;;;;;;10.23;4.07;;;9.70;99.90;;;;;;5050841;28;20204;-75
2022/04/07 03:13:43;;;;;;;4.97;4.27;;;9.70;99.90;;;;;;5057221;28;20218;-75
2022/04/07 03:16:09;;;;;;;7.97;4.80;;;9.70;99.90;;;;;;5070186;28;20276;-75
2022/04/07 03:18:35;;;;;;;8.93;4.73;;;9.70;99.90;;;;;;5070073;28;20199;-76
2022/04/07 03:21:00;;;;;;;8.97;4.57;;;9.60;99.90;;;;;;5070135;28;20211;-74
2022/04/07 03:23:26;;;;;;;6.17;4.20;;;9.60;99.90;;;;;;5069956;28;20206;-75
2022/04/07 03:25:52;;;;;;;8.03;4.33;;;9.60;99.90;;;;;;5070779;28;20259;-75
2022/04/07 03:28:18;;;;;;;6.77;4.20;;;9.60;99.90;;;;;;5069363;28;20705;-75
2022/04/07 03:30:43;;;;;;;8.00;4.30;;;9.60;99.90;;;;;;5068736;28;20184;-76
2022/04/07 03:33:09;;;;;;;6.30;4.30;;;9.60;99.90;;;;;;5062738;28;20229;-79
2022/04/07 03:35:38;;;;;;;7.70;4.37;;;9.70;99.90;;;;;;5059571;28;20219;-78
2022/04/07 03:38:06;;;;;;;7.03;4.57;;;9.60;99.90;;;;;;5063705;28;20215;-79
2022/04/07 03:40:35;;;;;;;5.40;4.13;;;9.60;99.90;;;;;;5068950;28;20227;-79
2022/04/07 03:43:01;;;;;;;7.87;4.47;;;9.60;99.90;;;;;;5071186;28;20692;-79
2022/04/07 03:45:27;;;;;;;9.37;4.67;;;9.60;99.90;;;;;;5071211;28;20210;-80
2022/04/07 03:47:52;;;;;;;6.17;3.70;;;9.60;99.90;;;;;;5065751;28;20207;-80
2022/04/07 03:50:18;;;;;;;8.73;4.13;;;9.60;99.90;;;;;;5069532;28;20215;-80
2022/04/07 03:52:44;;;;;;;8.77;4.27;;;9.60;99.90;;;;;;5078453;28;20208;-80
2022/04/07 03:55:10;;;;;;;5.73;4.20;;;9.60;99.90;;;;;;5059605;28;20214;-80
2022/04/07 03:57:35;;;;;;;7.47;4.57;;;9.60;99.90;;;;;;5069689;28;20171;-80
2022/04/07 04:00:01;;;;;;;7.47;4.67;;;9.70;99.90;;;;;;5073527;28;20210;-80
2022/04/07 04:02:27;;;;;;;7.03;4.40;;;9.70;99.90;;;;;;5069901;28;20211;-79
2022/04/07 04:04:52;;;;;;;7.00;4.37;;;9.70;99.90;;;;;;5071153;28;20696;-79
2022/04/07 04:07:18;;;;;;;5.47;3.73;;;9.80;99.90;;;;;;5067076;28;20345;-80
2022/04/07 04:09:45;;;;;;;7.80;4.13;;;9.80;99.90;;;;;;5073823;28;20220;-80
2022/04/07 04:12:10;;;;;;;5.33;3.87;;;9.80;99.90;;;;;;5075298;28;20163;-79
2022/04/07 04:14:36;;;;;;;6.63;4.50;;;9.90;99.90;;;;;;5072674;28;20214;-79
2022/04/07 04:17:02;;;;;;;5.37;3.70;;;9.90;99.90;;;;;;5073119;28;20207;-78
2022/04/07 04:19:28;;;;;;;7.03;4.40;;;9.90;99.90;;;;;;5069935;28;20207;-78
2022/04/07 04:21:53;;;;;;;6.20;4.37;;;9.90;99.90;;;;;;5066249;28;20199;-78
2022/04/07 04:24:19;;;;;;;6.60;3.77;;;10.00;99.90;;;;;;5072714;28;20662;-78
2022/04/07 04:26:44;;;;;;;5.47;4.20;;;10.00;99.90;;;;;;5071564;28;20579;-78
2022/04/07 04:29:10;;;;;;;7.70;3.87;;;10.00;99.90;;;;;;5070942;28;20340;-78
2022/04/07 04:31:35;;;;;;;6.13;4.03;;;10.00;99.90;;;;;;5063663;28;20218;-80
2022/04/07 04:34:01;;;;;;;7.43;4.10;;;10.00;99.90;;;;;;5063748;28;20231;-79
2022/04/07 04:36:28;;;;;;;8.27;4.43;;;10.10;99.90;;;;;;5059765;28;20191;-80
2022/04/07 04:38:54;;;;;;;6.93;3.90;;;10.10;99.90;;;;;;5057670;28;20605;-80
2022/04/07 04:41:19;;;;;;;7.37;4.03;;;10.10;99.90;;;;;;5058019;28;20298;-77
2022/04/07 04:43:45;;;;;;;5.60;4.47;;;10.10;99.90;;;;;;5055599;28;20200;-77
2022/04/07 04:46:10;;;;;;;5.30;3.80;;;10.10;99.90;;;;;;5052898;28;20294;-78
2022/04/07 04:48:38;;;;;;;5.77;4.07;;;10.20;99.90;;;;;;5052294;28;20222;-77
2022/04/07 04:51:04;;;;;;;5.50;3.63;;;10.10;99.90;;;;;;5053313;28;20282;-78
2022/04/07 04:53:29;;;;;;;5.50;4.20;;;10.10;99.90;;;;;;5054136;28;20235;-79
2022/04/07 04:55:55;;;;;;;4.33;3.90;;;10.10;99.90;;;;;;5058276;28;20210;-79
2022/04/07 04:58:20;;;;;;;6.80;4.03;;;10.20;99.90;;;;;;5059708;28;20219;-79
2022/04/07 05:00:46;;;;;;;4.60;3.43;;;10.20;99.90;;;;;;5045930;28;20187;-78
2022/04/07 05:03:11;;;;;;;5.07;3.87;;;10.20;99.90;;;;;;5054467;28;20200;-78
2022/04/07 05:05:37;;;;;;;3.87;3.17;;;10.20;99.90;;;;;;5053031;28;20216;-78
2022/04/07 05:08:03;;;;;;;4.70;3.20;;;10.20;99.90;;;;;;5053041;28;20227;-79
2022/04/07 05:10:28;;;;;;;6.70;3.00;;;10.30;99.90;;;;;;5054360;28;20214;-79
2022/04/07 05:12:54;;;;;;;5.70;3.17;;;10.30;99.90;;;;;;5062775;28;20183;-79
2022/04/07 05:15:19;;;;;;;3.73;2.43;;;10.30;99.90;;;;;;5054429;28;20182;-79
2022/04/07 05:17:49;;;;;;;6.07;3.23;;;10.40;99.90;;;;;;5052723;28;20538;-79
2022/04/07 05:20:15;;;;;;;6.43;3.67;;;10.30;99.90;;;;;;5054884;28;20645;-79
2022/04/07 05:22:41;;;;;;;12.27;4.53;;;10.40;99.90;;;;;;5053836;28;20239;-79
2022/04/07 05:25:08;;;;;;;6.83;3.53;;;10.60;99.90;;;;;;5057942;28;20222;-79
2022/04/07 05:27:36;;;;;;;3.83;2.70;;;10.60;99.90;;;;;;5056387;28;20243;-80
2022/04/07 05:30:08;;;;;;;6.10;3.40;;;10.60;99.90;;;;;;5058025;28;20291;-80
2022/04/07 05:32:37;;;;;;;4.87;2.87;;;10.70;99.90;;;;;;5053185;28;20270;-79
2022/04/07 05:35:03;;;;;;;4.83;3.00;;;10.60;99.90;;;;;;5052199;28;20203;-78
2022/04/07 05:37:28;;;;;;;5.67;2.83;;;10.70;99.90;;;;;;5054192;28;20208;-80
2022/04/07 05:39:53;;;;;;;3.53;2.30;;;10.70;99.90;;;;;;5053451;28;20207;-79
2022/04/07 05:42:19;;;;;;;4.57;3.10;;;10.80;99.90;;;;;;5054938;28;20238;-79
2022/04/07 05:44:44;;;;;;;4.63;3.13;;;10.70;99.90;;;;;;5064266;28;20223;-79
2022/04/07 05:47:10;;;;;;;4.60;3.10;;;10.80;99.90;;;;;;5055989;28;20219;-80
2022/04/07 05:49:36;;;;;;;4.47;2.83;;;10.70;99.90;;;;;;5053425;28;20212;-80
2022/04/07 05:52:04;;;;;;;8.17;3.43;;;10.70;99.90;;;;;;5061252;28;20242;-80
2022/04/07 05:54:31;;;;;;;3.97;2.50;;;10.80;99.90;;;;;;5061909;28;20183;-79
2022/04/07 05:56:56;;;;;;;4.97;3.17;;;10.80;99.90;;;;;;5055560;28;20614;-79
2022/04/07 05:59:22;;;;;;;7.63;3.13;;;10.90;99.90;;;;;;5052564;28;20223;-78
2022/04/07 06:01:47;;;;;;;5.20;3.13;;;11.00;99.90;;;;;;5055122;28;20231;-80
2022/04/07 06:04:13;;;;;;;4.47;2.60;;;11.20;99.90;;;;;;5050703;28;20610;-79
2022/04/07 06:06:38;;;;;;;6.43;3.07;;;11.30;99.90;;;;;;5052844;28;20184;-79
2022/04/07 06:09:05;;;;;;;4.77;2.70;;;11.40;99.90;;;;;;5052574;28;20230;-80
2022/04/07 06:11:30;;;;;;;4.73;2.70;;;11.40;99.90;;;;;;5051876;28;20653;-79
2022/04/07 06:13:56;;;;;;;3.50;2.40;;;11.80;99.90;;;;;;5053401;28;20208;-80
2022/04/07 06:16:21;;;;;;;4.90;2.57;;;11.70;99.90;;;;;;5052308;28;20290;-79
2022/04/07 06:18:46;;;;;;;6.40;2.90;;;11.80;99.90;;;;;;5052546;28;20226;-80
2022/04/07 06:21:12;;;;;;;4.10;2.40;;;11.70;99.90;;;;;;5052484;28;20732;-80
2022/04/07 06:23:39;;;;;;;4.33;2.40;;;11.70;99.90;;;;;;5053155;28;20212;-79
2022/04/07 06:26:04;;;;;;;7.03;3.00;;;11.70;99.90;;;;;;5053154;28;20227;-80
2022/04/07 06:28:30;;;;;;;5.17;2.60;;;11.70;99.90;;;;;;5052043;28;20211;-80
2022/04/07 06:30:55;;;;;;;3.13;2.20;;;11.70;99.90;;;;;;5054498;28;20187;-80
2022/04/07 06:33:21;;;;;;;3.53;2.33;;;11.70;99.90;;;;;;5057761;28;20172;-79
2022/04/07 06:35:49;;;;;;;3.80;2.43;;;11.70;99.90;;;;;;5051046;28;20294;-79
2022/04/07 06:38:15;;;;;;;3.17;2.40;;;11.70;99.90;;;;;;5050191;28;20215;-80
2022/04/07 06:40:40;;;;;;;2.83;2.23;;;11.80;99.90;;;;;;5046113;28;20223;-79
2022/04/07 06:43:06;;;;;;;3.23;2.03;;;11.80;99.90;;;;;;5050827;28;20314;-79
2022/04/07 06:45:31;;;;;;;5.13;2.00;;;11.80;99.90;;;;;;5052144;28;20674;-80
2022/04/07 06:47:57;;;;;;;2.93;2.23;;;11.80;99.90;;;;;;5057054;28;20218;-78
2022/04/07 06:50:25;;;;;;;5.80;4.53;;;11.80;99.90;;;;;;5057074;28;20227;-78
2022/04/07 06:52:51;;;;;;;2.50;1.93;;;11.80;99.90;;;;;;5049736;28;20210;-80
2022/04/07 06:55:17;;;;;;;5.47;2.47;;;11.90;99.90;;;;;;5050424;28;20211;-80
2022/04/07 06:57:53;;;;;;;5.33;2.10;;;12.00;99.90;;;;;;5049837;28;20211;-79
2022/04/07 07:00:21;;;;;;;7.03;2.03;;;12.10;99.90;;;;;;5050897;28;20279;-80
2022/04/07 07:02:54;;;;;;;4.30;2.20;;;12.30;99.90;;;;;;5052695;28;20345;-81
2022/04/07 07:05:21;;;;;;;3.93;2.23;;;12.50;99.90;;;;;;5054144;28;20215;-80
2022/04/07 07:07:47;;;;;;;4.63;2.50;;;12.90;99.90;;;;;;5051090;28;20218;-79
2022/04/07 07:10:12;;;;;;;4.17;1.97;;;13.10;99.90;;;;;;5050710;28;20585;-80
2022/04/07 07:12:38;;;;;;;3.87;2.20;;;13.30;99.90;;;;;;5033540;28;20180;-80
2022/04/07 07:15:04;;;;;;;3.20;1.67;;;13.30;99.90;;;;;;5052908;28;20214;-82
2022/04/07 07:17:33;;;;;;;2.78;1.90;;;13.70;99.90;;;;;;5034609;28;20237;-82
2022/04/07 07:20:03;;;;;;;2.40;2.00;;;14.90;99.90;;;;;;5034057;28;20769;-80
2022/04/07 07:22:29;;;;;;;3.67;2.33;;;16.00;99.90;;;;;;5058421;28;20259;-81
2022/04/07 07:24:54;;;;;;;2.30;2.08;;;16.30;99.90;;;;;;5057809;28;20187;-80
2022/04/07 07:27:20;;;;;;;5.43;2.05;;;16.70;99.90;;;;;;5059312;28;20207;-80
2022/04/07 07:29:45;;;;;;;3.22;1.80;;;17.60;99.90;;;;;;5059954;28;20217;-80
2022/04/07 07:32:11;;;;;;;2.50;1.60;;;18.90;99.90;;;;;;5060700;28;20215;-81
2022/04/07 07:34:36;;;;;;;1.55;1.40;;;19.70;99.90;;;;;;5062221;28;20654;-81
2022/04/07 07:37:02;;;;;;;3.72;1.80;;;19.70;99.90;;;;;;5061098;28;20219;-80
2022/04/07 07:39:27;;;;;;;2.33;1.55;;;19.50;99.90;;;;;;5061240;28;20199;-79
2022/04/07 07:41:53;;;;;;;3.53;1.67;;;19.30;99.90;;;;;;5061704;28;20275;-80
2022/04/07 07:44:18;;;;;;;3.00;1.30;;;18.70;99.90;;;;;;5042087;28;20204;-79
2022/04/07 07:46:44;;;;;;;2.25;1.45;;;17.90;99.90;;;;;;5030085;28;20207;-82
2022/04/07 07:49:09;;;;;;;3.72;1.80;;;16.90;99.90;;;;;;5061234;28;20208;-80
2022/04/07 07:51:36;;;;;;;2.85;1.63;;;16.60;99.90;;;;;;5059922;28;20211;-74
2022/04/07 07:54:01;;;;;;;2.33;1.50;;;16.70;99.90;;;;;;5048778;28;20203;-77
2022/04/07 07:56:27;;;;;;;2.65;1.52;;;16.60;99.90;;;;;;5036911;28;20299;-74
2022/04/07 07:58:52;;;;;;;4.00;1.60;;;17.10;99.90;;;;;;5070623;28;20215;-77
2022/04/07 08:01:17;;;;;;;1.88;1.48;;;17.10;99.90;;;;;;5073251;28;20223;-78
2022/04/07 08:03:43;;;;;;;2.13;1.45;;;17.00;99.90;;;;;;5073454;28;20679;-83
2022/04/07 08:06:08;;;;;;;1.98;1.25;;;18.30;99.90;;;;;;5082674;28;20202;-87
2022/04/07 08:08:34;;;;;;;3.33;1.40;;;19.70;99.90;;;;;;5064806;28;20220;-85
2022/04/07 08:10:59;;;;;;;2.33;1.20;;;20.10;99.90;;;;;;5071977;28;20207;-80
2022/04/07 08:13:25;;;;;;;2.10;1.35;;;20.50;99.90;;;;;;5069988;28;20199;-80
2022/04/07 08:15:50;;;;;;;3.05;1.30;;;19.70;99.90;;;;;;5074097;28;20597;-79
2022/04/07 08:18:16;;;;;;;3.13;1.20;;;20.20;99.90;;;;;;5073292;28;20213;-78
2022/04/07 08:20:42;;;;;;;2.03;1.00;;;20.70;99.90;;;;;;5072813;28;20214;-79
2022/04/07 08:23:07;;;;;;;2.28;1.10;;;20.70;99.90;;;;;;5073023;28;20207;-78
2022/04/07 08:25:33;;;;;;;1.92;1.17;;;19.60;99.90;;;;;;5073360;28;20202;-78
2022/04/07 08:27:58;;;;;;;1.80;1.10;;;19.60;99.90;;;;;;5072081;28;20203;-79
2022/04/07 08:30:24;;;;;;;1.88;1.42;;;20.00;99.90;;;;;;5072804;28;20209;-79
2022/04/07 08:32:49;;;;;;;1.95;1.23;;;19.30;99.90;;;;;;5072409;28;20195;-78
2022/04/07 08:35:15;;;;;;;2.50;1.20;;;18.40;99.90;;;;;;5057475;28;20303;-78
2022/04/07 08:37:40;;;;;;;2.55;1.48;;;19.40;99.90;;;;;;5071646;28;20237;-78
2022/04/07 08:40:07;;;;;;;3.35;1.35;;;18.90;99.90;;;;;;5072320;28;20248;-78
2022/04/07 08:42:34;;;;;;;2.08;1.23;;;18.10;99.90;;;;;;5068586;28;20271;-77
2022/04/07 08:44:59;;;;;;;5.18;1.48;;;17.30;99.90;;;;;;5072967;28;20219;-78
2022/04/07 08:47:25;;;;;;;3.13;1.15;;;16.70;99.90;;;;;;5072166;28;20228;-75
2022/04/07 08:49:51;;;;;;;1.65;1.13;;;17.10;99.90;;;;;;5071515;28;20620;-75
2022/04/07 08:52:18;;;;;;;1.73;1.10;;;17.10;99.90;;;;;;5072585;28;20207;-76
2022/04/07 08:54:47;;;;;;;3.20;1.20;;;16.90;99.90;;;;;;5071887;28;20282;-75
2022/04/07 08:57:14;;;;;;;2.72;1.65;;;16.10;99.90;;;;;;5036604;28;20183;-75
2022/04/07 08:59:40;;;;;;;3.90;2.28;;;15.70;99.90;;;;;;5080744;23;20325;-75
2022/04/07 09:02:07;;;;;;;3.17;1.13;;;15.50;99.90;;;;;;5091802;28;20218;-75
2022/04/07 09:04:37;;;;;;;1.45;1.08;;;15.50;99.90;;;;;;5091538;28;20210;-76
2022/04/07 09:07:03;;;;;;;2.00;1.13;;;15.50;99.90;;;;;;5091462;28;20669;-76
2022/04/07 09:09:32;;;;;;;1.35;0.93;;;15.80;99.90;;;;;;5091163;28;20285;-75
2022/04/07 09:11:58;;;;;;;2.08;0.90;;;15.70;99.90;;;;;;5091657;28;20252;-75
2022/04/07 09:14:23;;;;;;;2.55;0.80;;;15.60;99.90;;;;;;5090439;28;20229;-75
2022/04/07 09:16:55;;;;;;;2.83;1.20;;;15.60;99.90;;;;;;5072883;28;20205;-75
2022/04/07 09:19:22;;;;;;;2.67;0.90;;;16.20;99.90;;;;;;5090944;28;20711;-75
2022/04/07 09:22:02;;;;;;;2.30;1.15;;;16.20;99.90;;;;;;5091851;28;20562;-76
2022/04/07 09:24:28;;;;;;;1.00;0.80;;;16.40;99.90;;;;;;5091563;28;20261;-75
2022/04/07 09:26:53;;;;;;;3.67;1.15;;;16.20;99.90;;;;;;5091345;28;20298;-76
2022/04/07 09:29:21;;;;;;;1.58;0.50;;;16.30;99.90;;;;;;5091971;28;20206;-82
2022/04/07 09:31:53;;;;;;;0.77;0.70;;;16.20;99.90;;;;;;5089255;28;20214;-78
2022/04/07 09:34:31;;;;;;;3.38;0.90;;;16.20;99.90;;;;;;5093240;28;20336;-77
2022/04/07 09:37:07;;;;;;;1.17;0.90;;;16.10;99.90;;;;;;5067078;28;20178;-80
2022/04/07 09:39:36;;;;;;;3.50;1.00;;;16.00;99.90;;;;;;5095184;28;20205;-81
2022/04/07 09:42:29;;;;;;;0.93;0.60;;;16.30;99.90;;;;;;5077802;28;20719;-79
2022/04/07 09:44:57;;;;;;;2.10;1.20;;;16.40;99.90;;;;;;5091210;28;20360;-76
2022/04/07 09:47:23;;;;;;;0.93;0.70;;;16.20;99.90;;;;;;5090639;28;20224;-79
2022/04/07 09:49:49;;;;;;;4.50;0.70;;;15.80;99.90;;;;;;5088706;28;20214;-77
2022/04/07 09:52:20;;;;;;;1.38;0.65;;;15.70;99.90;;;;;;5071605;28;20228;-78
2022/04/07 09:54:48;;;;;;;0.82;0.77;;;15.80;99.90;;;;;;5090581;28;20549;-79
2022/04/07 09:57:15;;;;;;;2.45;1.63;;;15.70;99.90;;;;;;5072084;28;20761;-79
2022/04/07 09:59:42;;;;;;;1.20;1.00;;;15.80;99.90;;;;;;5089221;28;20223;-78
2022/04/07 10:02:08;;;;;;;2.30;1.25;;;15.70;99.90;;;;;;5071674;28;20214;-78
2022/04/07 10:04:34;;;;;;;1.30;0.95;;;15.50;99.90;;;;;;5091623;28;20214;-78
2022/04/07 10:07:02;;;;;;;5.05;1.00;;;15.30;99.90;;;;;;5061493;28;20175;-76
2022/04/07 10:09:28;;;;;;;1.80;0.70;;;15.10;99.90;;;;;;5069465;28;20682;-76
2022/04/07 10:11:54;;;;;;;1.27;0.80;;;15.00;99.90;;;;;;5072851;28;20209;-76
2022/04/07 10:14:23;;;;;;;1.73;0.82;;;15.10;99.90;;;;;;5075410;28;20201;-77
2022/04/07 10:16:48;;;;;;;1.17;0.50;;;15.40;99.90;;;;;;5072316;28;20305;-75
2022/04/07 10:19:27;;;;;;;1.73;0.80;;;15.90;99.90;;;;;;5078210;28;20310;-73
2022/04/07 10:22:10;;;;;;;2.25;1.20;;;16.00;99.90;;;;;;5082636;28;20219;-75
2022/04/07 10:24:43;;;;;;;2.15;1.20;;;15.70;99.90;;;;;;5097106;28;20186;-76
2022/04/07 10:27:10;;;;;;;1.23;0.95;;;15.50;99.90;;;;;;5090742;28;20281;-76
2022/04/07 10:29:38;;;;;;;2.10;0.68;;;15.30;99.90;;;;;;5090111;28;20213;-76
2022/04/07 10:32:12;;;;;;;1.85;0.60;;;15.10;99.90;;;;;;5090192;28;20198;-77
2022/04/07 10:34:54;;;;;;;0.88;0.70;;;15.10;99.90;;;;;;5090235;28;20217;-76
2022/04/07 10:37:29;;;;;;;1.65;0.80;;;15.00;99.90;;;;;;5087068;28;20694;-75
2022/04/07 10:39:55;;;;;;;2.20;0.90;;;14.90;99.90;;;;;;5064597;28;20560;-75
2022/04/07 10:43:00;;;;;;;3.63;0.90;;;14.90;99.90;;;;;;5073462;28;20194;-76
2022/04/07 10:45:35;;;;;;;1.33;0.70;;;14.90;99.90;;;;;;5075849;28;20206;-76
2022/04/07 10:48:18;;;;;;;0.85;0.70;;;14.90;99.90;;;;;;5089756;28;20217;-75
2022/04/07 10:50:48;;;;;;;1.08;0.63;;;14.80;99.90;;;;;;5072298;28;20201;-75
2022/04/07 10:53:21;;;;;;;2.95;1.00;;;14.70;99.90;;;;;;5090699;28;20209;-77
2022/04/07 10:56:21;;;;;;;1.60;0.80;;;14.50;99.90;;;;;;5082115;28;20256;-78
2022/04/07 10:58:49;;;;;;;3.75;1.00;;;14.40;99.90;;;;;;5092200;28;20225;-77
2022/04/07 11:01:30;;;;;;;3.13;0.80;;;14.40;99.90;;;;;;5076574;28;20237;-77
2022/04/07 11:04:20;;;;;;;4.70;1.20;;;14.30;99.90;;;;;;5087610;28;20193;-77
2022/04/07 11:07:15;;;;;;;1.05;0.93;;;14.20;99.90;;;;;;5095119;28;20167;-77
2022/04/07 11:10:00;;;;;;;1.67;0.90;;;14.10;99.90;;;;;;5094369;28;20209;-78
2022/04/07 11:12:34;;;;;;;1.83;0.93;;;14.10;99.90;;;;;;5095945;28;20202;-77
2022/04/07 11:15:02;;;;;;;1.92;0.98;;;14.10;99.90;;;;;;5094914;28;20289;-78
2022/04/07 11:17:40;;;;;;;2.40;0.70;;;14.00;99.90;;;;;;5095080;28;20639;-76
2022/04/07 11:20:15;;;;;;;3.63;0.88;;;14.00;99.90;;;;;;5075954;28;20217;-77
2022/04/07 11:22:56;;;;;;;4.30;0.70;;;14.00;99.90;;;;;;5095091;28;20271;-77
2022/04/07 11:25:23;;;;;;;5.07;1.53;;;14.10;99.90;;;;;;5094567;28;20279;-77
2022/04/07 11:28:10;;;;;;;4.37;0.83;;;14.20;99.90;;;;;;5079685;28;20178;-76
2022/04/07 11:30:40;;;;;;;3.03;1.90;;;14.20;99.90;;;;;;5097100;28;20174;-76
2022/04/07 11:33:27;;;;;;;2.47;0.82;;;14.20;99.90;;;;;;5077458;28;20271;-75
2022/04/07 11:35:58;;;;;;;1.70;0.50;;;14.10;99.90;;;;;;5078112;28;20209;-77
2022/04/07 11:38:29;;;;;;;2.25;1.00;;;14.10;99.90;;;;;;5092596;28;20214;-74
2022/04/07 11:41:16;;;;;;;0.93;0.68;;;14.20;99.90;;;;;;5093649;28;20268;-75
2022/04/07 11:43:44;;;;;;;0.75;0.52;;;14.20;99.90;;;;;;5099727;28;20209;-83
2022/04/07 11:46:13;;;;;;;3.25;0.80;;;14.20;99.90;;;;;;5095404;28;20696;-76
2022/04/07 11:48:39;;;;;;;1.63;0.55;;;14.30;99.90;;;;;;5098528;28;20682;-81
2022/04/07 11:51:17;;;;;;;6.35;0.70;;;14.30;99.90;;;;;;5098353;28;20278;-83
2022/04/07 11:53:46;;;;;;;1.90;0.60;;;14.20;99.90;;;;;;5081194;28;20232;-81
2022/04/07 11:56:20;;;;;;;1.33;0.57;;;14.10;99.90;;;;;;5101350;28;20214;-79
2022/04/07 11:59:07;;;;;;;3.33;0.70;;;14.00;99.90;;;;;;5079555;28;20209;-79
2022/04/07 12:01:36;;;;;;;1.00;0.60;;;13.90;99.90;;;;;;5098485;28;20225;-80
2022/04/07 12:04:04;;;;;;;2.40;0.55;;;13.90;99.90;;;;;;5099069;28;20185;-76
2022/04/07 12:06:32;;;;;;;1.60;0.50;;;13.90;99.90;;;;;;5075577;28;20236;-75
2022/04/07 12:08:58;;;;;;;0.90;0.47;;;13.80;99.90;;;;;;5092146;28;20213;-77
2022/04/07 12:11:26;;;;;;;1.10;0.63;;;13.80;99.90;;;;;;5074760;28;20198;-76
2022/04/07 12:13:53;;;;;;;1.37;1.00;;;13.80;99.90;;;;;;5093178;28;20297;-76
2022/04/07 12:16:21;;;;;;;4.23;0.80;;;13.70;99.90;;;;;;5093090;28;20210;-76
2022/04/07 12:18:59;;;;;;;2.07;0.60;;;13.60;99.90;;;;;;5083983;28;20252;-76
2022/04/07 12:21:27;;;;;;;1.80;0.70;;;13.60;99.90;;;;;;5094244;28;20221;-80
2022/04/07 12:24:13;;;;;;;2.63;0.80;;;13.60;99.90;;;;;;5082178;28;20299;-82
2022/04/07 12:26:43;;;;;;;1.47;1.13;;;13.50;99.90;;;;;;5078160;28;21478;-76
2022/04/07 12:29:14;;;;;;;2.07;0.60;;;13.60;99.90;;;;;;5069028;28;20256;-78
2022/04/07 12:31:39;;;;;;;0.77;0.50;;;13.50;99.90;;;;;;5094743;28;20230;-76
2022/04/07 12:34:12;;;;;;;2.87;0.60;;;13.60;99.90;;;;;;5102503;28;20226;-75
2022/04/07 12:36:42;;;;;;;1.43;0.60;;;13.60;99.90;;;;;;5075892;28;20594;-76
2022/04/07 12:39:12;;;;;;;2.83;0.73;;;13.60;99.90;;;;;;5074902;28;20210;-79
2022/04/07 12:41:43;;;;;;;1.13;0.63;;;13.40;99.90;;;;;;5075587;28;20218;-77
2022/04/07 12:44:10;;;;;;;2.30;0.80;;;13.40;99.90;;;;;;5092428;28;20233;-76
2022/04/07 12:46:57;;;;;;;1.37;0.60;;;13.40;99.90;;;;;;5093441;28;20647;-77
2022/04/07 12:49:24;;;;;;;2.10;0.60;;;13.40;99.90;;;;;;5092725;28;20713;-80
2022/04/07 12:52:01;;;;;;;0.80;0.77;;;13.30;99.90;;;;;;5075720;28;20183;-81